createdAt,value
2023-02-14T00:00:09.351Z,17.83
2023-02-14T00:02:37.359Z,14.70
2023-02-14T00:05:07.503Z,12.50
2023-02-14T00:07:35.268Z,14.27
2023-02-14T00:10:03.080Z,14.87
2023-02-14T00:12:30.750Z,12.27
2023-02-14T00:15:16.335Z,13.77
2023-02-14T00:17:44.009Z,12.53
2023-02-14T00:20:13.367Z,13.57
2023-02-14T00:22:41.028Z,12.43
2023-02-14T00:25:08.858Z,13.53
2023-02-14T00:27:36.561Z,18.77
2023-02-14T00:30:04.861Z,16.43
2023-02-14T00:32:33.658Z,14.37
2023-02-14T00:35:01.912Z,12.70
2023-02-14T00:37:31.240Z,13.30
2023-02-14T00:39:59.412Z,15.07
2023-02-14T00:42:27.871Z,15.80
2023-02-14T00:44:55.755Z,13.17
2023-02-14T00:47:23.674Z,13.20
2023-02-14T00:49:51.538Z,18.50
2023-02-14T00:52:19.396Z,11.20
2023-02-14T00:54:48.638Z,15.47
2023-02-14T00:57:16.490Z,17.00
2023-02-14T00:59:44.337Z,13.93
2023-02-14T01:02:12.899Z,11.50
2023-02-14T01:04:40.574Z,12.90
2023-02-14T01:07:08.232Z,13.50
2023-02-14T01:09:36.260Z,14.03
2023-02-14T01:12:06.101Z,13.37
2023-02-14T01:14:34.000Z,13.33
2023-02-14T01:17:01.844Z,14.17
2023-02-14T01:19:30.191Z,14.10
2023-02-14T01:21:58.104Z,14.80
2023-02-14T01:24:26.650Z,17.43
2023-02-14T01:26:54.466Z,15.90
2023-02-14T01:29:23.509Z,15.13
2023-02-14T01:31:51.237Z,12.10
2023-02-14T01:34:18.975Z,14.97
2023-02-14T01:36:46.632Z,15.43
2023-02-14T01:39:15.755Z,15.83
2023-02-14T01:41:44.353Z,15.33
2023-02-14T01:44:45.451Z,15.13
2023-02-14T01:47:14.707Z,14.87
2023-02-14T01:49:45.143Z,15.70
2023-02-14T01:52:14.933Z,14.93
2023-02-14T01:54:44.062Z,16.93
2023-02-14T01:57:13.525Z,17.33
2023-02-14T01:59:42.950Z,19.20
2023-02-14T02:02:11.061Z,18.63
2023-02-14T02:04:42.035Z,17.73
2023-02-14T02:07:11.507Z,20.70
2023-02-14T02:09:41.699Z,16.93
2023-02-14T02:12:09.473Z,15.87
2023-02-14T02:14:37.131Z,16.90
2023-02-14T02:17:12.947Z,19.83
2023-02-14T02:20:17.392Z,16.23
2023-02-14T02:23:23.052Z,16.27
2023-02-14T02:26:26.203Z,17.57
2023-02-14T02:29:17.525Z,16.60
2023-02-14T02:32:08.392Z,15.10
2023-02-14T02:34:57.856Z,14.83
2023-02-14T02:37:33.144Z,15.07
2023-02-14T02:40:08.648Z,15.17
2023-02-14T02:42:40.996Z,14.93
2023-02-14T02:45:14.063Z,13.90
2023-02-14T02:47:43.800Z,14.80
2023-02-14T02:50:37.586Z,13.00
2023-02-14T02:53:08.813Z,13.73
2023-02-14T02:56:01.068Z,12.73
2023-02-14T02:58:31.181Z,12.17
2023-02-14T03:00:59.547Z,11.33
2023-02-14T03:03:45.422Z,12.43
2023-02-14T03:06:13.574Z,12.30
2023-02-14T03:08:42.565Z,11.47
2023-02-14T03:11:11.245Z,12.17
2023-02-14T03:14:01.198Z,12.53
2023-02-14T03:16:36.817Z,12.13
2023-02-14T03:19:27.259Z,12.10
2023-02-14T03:21:57.018Z,11.10
2023-02-14T03:24:29.316Z,13.27
2023-02-14T03:27:01.703Z,12.53
2023-02-14T03:29:32.654Z,12.33
2023-02-14T03:32:03.258Z,10.70
2023-02-14T03:34:33.218Z,11.87
2023-02-14T03:37:02.644Z,11.07
2023-02-14T03:39:33.506Z,10.83
2023-02-14T03:42:06.178Z,10.40
2023-02-14T03:44:34.482Z,8.70
2023-02-14T03:47:04.043Z,9.97
2023-02-14T03:49:33.283Z,9.50
2023-02-14T03:52:00.976Z,11.53
2023-02-14T03:54:28.667Z,10.17
2023-02-14T03:57:00.563Z,9.30
2023-02-14T03:59:28.330Z,9.90
2023-02-14T04:01:58.037Z,11.70
2023-02-14T04:04:26.904Z,10.57
2023-02-14T04:06:55.191Z,9.77
2023-02-14T04:09:23.077Z,9.47
2023-02-14T04:11:51.410Z,9.67
2023-02-14T04:14:20.699Z,10.50
2023-02-14T04:17:06.777Z,9.63
2023-02-14T04:19:34.650Z,9.80
2023-02-14T04:22:03.151Z,10.07
2023-02-14T04:24:31.109Z,8.20
2023-02-14T04:27:12.251Z,15.87
2023-02-14T04:29:42.345Z,7.67
2023-02-14T04:32:11.331Z,9.10
2023-02-14T04:34:40.486Z,9.87
2023-02-14T04:37:08.585Z,9.87
2023-02-14T04:39:36.440Z,8.30
2023-02-14T04:42:04.332Z,8.93
2023-02-14T04:44:34.259Z,7.30
2023-02-14T04:47:03.256Z,8.53
2023-02-14T04:49:31.304Z,8.10
2023-02-14T04:51:59.240Z,9.67
2023-02-14T04:54:27.154Z,8.87
2023-02-14T04:56:55.102Z,8.90
2023-02-14T04:59:24.927Z,8.90
2023-02-14T05:01:53.029Z,9.37
2023-02-14T05:04:22.460Z,6.70
2023-02-14T05:06:50.148Z,9.27
2023-02-14T05:09:18.217Z,8.10
2023-02-14T05:11:45.896Z,8.40
2023-02-14T05:14:14.086Z,8.13
2023-02-14T05:16:42.546Z,7.00
2023-02-14T05:19:10.536Z,7.60
2023-02-14T05:21:40.157Z,7.73
2023-02-14T05:24:08.203Z,9.27
2023-02-14T05:26:36.444Z,8.27
2023-02-14T05:29:04.314Z,8.43
2023-02-14T05:31:32.316Z,7.67
2023-02-14T05:34:00.296Z,7.23
2023-02-14T05:36:28.230Z,10.30
2023-02-14T05:38:57.495Z,7.50
2023-02-14T05:41:25.652Z,8.73
2023-02-14T05:43:53.729Z,7.27
2023-02-14T05:46:21.958Z,8.20
2023-02-14T05:48:49.879Z,7.67
2023-02-14T05:51:17.950Z,6.90
2023-02-14T05:53:45.861Z,6.53
2023-02-14T05:56:15.628Z,8.00
2023-02-14T05:58:43.476Z,8.13
2023-02-14T06:01:11.384Z,7.43
2023-02-14T06:03:39.726Z,8.30
2023-02-14T06:06:07.780Z,8.80
2023-02-14T06:08:35.806Z,6.90
2023-02-14T06:11:03.695Z,7.20
2023-02-14T06:13:33.474Z,6.57
2023-02-14T06:16:01.267Z,7.57
2023-02-14T06:18:29.956Z,7.37
2023-02-14T06:20:58.128Z,6.67
2023-02-14T06:23:26.434Z,7.23
2023-02-14T06:25:54.347Z,7.13
2023-02-14T06:28:23.326Z,7.20
2023-02-14T06:30:52.401Z,6.07
2023-02-14T06:33:20.546Z,7.13
2023-02-14T06:35:48.446Z,6.50
2023-02-14T06:38:16.318Z,5.90
2023-02-14T06:40:44.305Z,6.30
2023-02-14T06:43:11.954Z,10.07
2023-02-14T06:45:40.029Z,6.20
2023-02-14T06:48:09.044Z,6.93
2023-02-14T06:50:37.174Z,7.40
2023-02-14T06:53:04.843Z,6.97
2023-02-14T06:55:32.947Z,6.83
2023-02-14T06:58:00.605Z,5.83
2023-02-14T07:00:28.983Z,7.70
2023-02-14T07:02:56.855Z,6.03
2023-02-14T07:05:26.327Z,6.70
2023-02-14T07:07:54.284Z,7.57
2023-02-14T07:10:22.226Z,7.13
2023-02-14T07:12:50.181Z,7.23
2023-02-14T07:15:18.114Z,5.83
2023-02-14T07:17:45.855Z,7.17
2023-02-14T07:20:14.104Z,7.00
2023-02-14T07:22:43.146Z,5.80
2023-02-14T07:25:11.015Z,6.07
2023-02-14T07:27:39.134Z,6.03
2023-02-14T07:30:08.173Z,7.30
2023-02-14T07:32:36.368Z,6.03
2023-02-14T07:35:04.047Z,5.60
2023-02-14T07:37:33.500Z,6.27
2023-02-14T07:40:02.579Z,6.10
2023-02-14T07:42:30.296Z,7.03
2023-02-14T07:44:58.007Z,6.37
2023-02-14T07:47:25.918Z,5.97
2023-02-14T07:49:53.585Z,7.07
2023-02-14T07:52:21.254Z,6.60
2023-02-14T07:54:49.573Z,8.23
2023-02-14T07:57:18.901Z,7.10
2023-02-14T07:59:46.762Z,6.63
2023-02-14T08:02:14.609Z,5.63
2023-02-14T08:04:42.492Z,6.87
2023-02-14T08:07:10.438Z,6.17
2023-02-14T08:09:38.710Z,8.10
2023-02-14T08:12:24.503Z,6.37
2023-02-14T08:14:54.153Z,7.80
2023-02-14T08:17:22.019Z,6.57
2023-02-14T08:19:50.158Z,5.97
2023-02-14T08:22:19.225Z,6.17
2023-02-14T08:24:47.103Z,6.87
2023-02-14T08:27:15.152Z,8.47
2023-02-14T08:29:42.820Z,7.53
2023-02-14T08:32:12.347Z,5.93
2023-02-14T08:34:40.170Z,6.77
2023-02-14T08:37:08.452Z,6.37
2023-02-14T08:39:36.115Z,6.83
2023-02-14T08:42:04.177Z,6.47
2023-02-14T08:44:31.857Z,6.53
2023-02-14T08:46:59.595Z,5.97
2023-02-14T08:49:28.715Z,5.93
2023-02-14T08:51:57.040Z,6.30
2023-02-14T08:54:24.996Z,6.30
2023-02-14T08:56:53.216Z,8.10
2023-02-14T08:59:20.953Z,8.60
2023-02-14T09:01:49.032Z,8.00
2023-02-14T09:04:17.140Z,9.20
2023-02-14T09:06:46.296Z,8.90
2023-02-14T09:09:14.145Z,9.70
2023-02-14T09:11:42.082Z,7.33
2023-02-14T09:14:10.219Z,10.17
2023-02-14T09:16:38.664Z,9.20
2023-02-14T09:19:06.640Z,8.83
2023-02-14T09:21:34.873Z,11.27
2023-02-14T09:24:05.223Z,8.47
2023-02-14T09:26:33.823Z,8.10
2023-02-14T09:29:02.140Z,7.83
2023-02-14T09:31:30.784Z,9.73
2023-02-14T09:34:17.291Z,10.53
2023-02-14T09:36:46.442Z,12.07
2023-02-14T09:39:16.417Z,8.80
2023-02-14T09:42:02.586Z,8.40
2023-02-14T09:44:33.150Z,7.77
2023-02-14T09:47:03.698Z,10.00
2023-02-14T09:49:32.812Z,12.70
2023-02-14T09:52:00.969Z,8.70
2023-02-14T09:54:31.158Z,8.03
2023-02-14T09:57:00.836Z,9.97
2023-02-14T09:59:30.907Z,10.83
2023-02-14T10:02:00.250Z,8.67
2023-02-14T10:04:29.800Z,10.47
2023-02-14T10:06:59.796Z,7.97
2023-02-14T10:09:41.710Z,8.97
2023-02-14T10:12:11.810Z,9.10
2023-02-14T10:14:41.287Z,8.30
2023-02-14T10:17:10.881Z,11.23
2023-02-14T10:19:40.386Z,7.90
2023-02-14T10:22:10.560Z,8.57
2023-02-14T10:24:42.098Z,8.10
2023-02-14T10:27:13.901Z,8.73
2023-02-14T10:29:42.214Z,7.10
2023-02-14T10:32:13.441Z,10.43
2023-02-14T10:34:43.703Z,8.53
2023-02-14T10:37:28.962Z,9.23
2023-02-14T10:40:11.501Z,7.47
2023-02-14T10:42:43.623Z,7.60
2023-02-14T10:45:19.166Z,7.80
2023-02-14T10:47:51.351Z,9.33
2023-02-14T10:50:22.366Z,7.03
2023-02-14T10:52:59.717Z,7.17
2023-02-14T10:55:38.587Z,6.87
2023-02-14T10:58:07.908Z,7.20
2023-02-14T11:00:36.477Z,7.20
2023-02-14T11:03:06.831Z,8.57
2023-02-14T11:05:36.913Z,6.53
2023-02-14T11:08:15.993Z,6.30
2023-02-14T11:10:45.860Z,6.60
2023-02-14T11:13:34.603Z,5.93
2023-02-14T11:16:04.158Z,6.37
2023-02-14T11:18:33.474Z,6.30
2023-02-14T11:21:02.820Z,6.27
2023-02-14T11:23:34.195Z,9.17
2023-02-14T11:26:03.719Z,5.33
2023-02-14T11:28:31.801Z,5.80
2023-02-14T11:31:00.050Z,5.73
2023-02-14T11:33:34.480Z,5.63
2023-02-14T11:36:03.373Z,5.47
2023-02-14T11:38:34.983Z,4.97
2023-02-14T11:41:04.796Z,5.03
2023-02-14T11:43:34.417Z,4.53
2023-02-14T11:46:17.057Z,4.23
2023-02-14T11:48:59.788Z,4.50
2023-02-14T11:51:32.612Z,5.00
2023-02-14T11:54:05.723Z,4.80
2023-02-14T11:56:53.854Z,5.63
2023-02-14T11:59:31.078Z,5.03
2023-02-14T12:02:00.234Z,4.20
2023-02-14T12:04:45.771Z,4.60
2023-02-14T12:07:19.766Z,5.37
2023-02-14T12:09:48.270Z,4.80
2023-02-14T12:12:20.218Z,3.53
2023-02-14T12:14:48.431Z,3.70
2023-02-14T12:17:22.535Z,3.83
2023-02-14T12:19:51.966Z,3.23
2023-02-14T12:22:20.761Z,4.20
2023-02-14T12:24:52.523Z,3.73
2023-02-14T12:27:24.015Z,3.50
2023-02-14T12:29:53.937Z,4.40
2023-02-14T12:32:23.651Z,3.30
2023-02-14T12:34:51.969Z,3.10
2023-02-14T12:37:24.795Z,3.37
2023-02-14T12:40:04.583Z,3.30
2023-02-14T12:42:47.393Z,3.00
2023-02-14T12:45:19.425Z,3.07
2023-02-14T12:47:50.606Z,3.10
2023-02-14T12:50:30.971Z,3.63
2023-02-14T12:53:29.302Z,3.50
2023-02-14T12:56:02.811Z,3.60
2023-02-14T12:58:40.068Z,4.63
2023-02-14T13:01:28.884Z,4.10
2023-02-14T13:04:20.548Z,4.73
2023-02-14T13:06:49.517Z,4.60
2023-02-14T13:09:24.706Z,5.23
2023-02-14T13:11:59.137Z,5.00
2023-02-14T13:14:41.692Z,6.20
2023-02-14T13:17:13.882Z,5.50
2023-02-14T13:19:44.621Z,6.50
2023-02-14T13:22:15.190Z,6.37
2023-02-14T13:24:43.849Z,6.60
2023-02-14T13:27:15.406Z,6.77
2023-02-14T13:29:46.113Z,5.80
2023-02-14T13:32:15.715Z,6.83
2023-02-14T13:34:45.235Z,7.10
2023-02-14T13:37:14.549Z,6.50
2023-02-14T13:39:44.074Z,6.53
2023-02-14T13:42:12.402Z,6.80
2023-02-14T13:44:45.829Z,6.77
2023-02-14T13:47:20.347Z,6.80
2023-02-14T13:49:50.612Z,6.70
2023-02-14T13:52:40.368Z,7.00
2023-02-14T13:55:09.025Z,6.93
2023-02-14T13:57:37.390Z,7.40
2023-02-14T14:00:39.145Z,7.90
2023-02-14T14:03:09.195Z,8.30
2023-02-14T14:05:59.852Z,8.53
2023-02-14T14:08:45.615Z,7.80
2023-02-14T14:12:00.716Z,7.70
2023-02-14T14:14:39.959Z,8.77
2023-02-14T14:17:25.884Z,8.87
2023-02-14T14:19:55.509Z,8.73
2023-02-14T14:22:23.459Z,8.80
2023-02-14T14:24:59.730Z,8.47
2023-02-14T14:27:30.561Z,8.50
2023-02-14T14:29:59.025Z,8.77
2023-02-14T14:32:28.914Z,8.47
2023-02-14T14:34:59.301Z,8.30
2023-02-14T14:37:28.932Z,8.10
2023-02-14T14:39:58.302Z,8.73
2023-02-14T14:42:28.151Z,9.20
2023-02-14T14:44:56.965Z,9.33
2023-02-14T14:47:26.386Z,10.53
2023-02-14T14:49:54.800Z,9.97
2023-02-14T14:52:33.365Z,11.67
2023-02-14T14:55:01.199Z,11.47
2023-02-14T14:57:29.444Z,11.10
2023-02-14T15:00:21.375Z,12.43
2023-02-14T15:03:04.443Z,11.97
2023-02-14T15:05:33.932Z,11.90
2023-02-14T15:08:22.913Z,11.40
2023-02-14T15:10:55.365Z,14.40
2023-02-14T15:13:47.912Z,12.37
2023-02-14T15:16:21.434Z,11.97
2023-02-14T15:18:50.227Z,11.23
2023-02-14T15:21:18.151Z,11.20
2023-02-14T15:23:48.202Z,10.40
2023-02-14T15:26:19.767Z,9.30
2023-02-14T15:28:48.844Z,10.40
2023-02-14T15:31:16.924Z,9.93
2023-02-14T15:33:45.767Z,9.97
2023-02-14T15:36:17.800Z,9.77
2023-02-14T15:38:47.476Z,9.53
2023-02-14T15:41:15.402Z,10.30
2023-02-14T15:43:43.750Z,9.87
2023-02-14T15:46:17.492Z,9.27
2023-02-14T15:48:45.808Z,9.03
2023-02-14T15:51:17.544Z,9.63
2023-02-14T15:53:50.056Z,8.93
2023-02-14T15:56:21.144Z,8.87
2023-02-14T15:58:49.625Z,9.17
2023-02-14T16:01:21.680Z,9.60
2023-02-14T16:03:51.453Z,9.37
2023-02-14T16:06:31.923Z,8.40
2023-02-14T16:09:01.310Z,9.30
2023-02-14T16:11:30.756Z,8.00
2023-02-14T16:13:58.996Z,8.23
2023-02-14T16:16:27.377Z,9.60
2023-02-14T16:18:57.329Z,7.87
2023-02-14T16:21:27.017Z,8.13
2023-02-14T16:24:13.373Z,7.90
2023-02-14T16:26:42.107Z,8.43
2023-02-14T16:29:11.171Z,7.97
2023-02-14T16:31:48.529Z,8.23
2023-02-14T16:34:24.931Z,7.87
2023-02-14T16:36:52.877Z,7.20
2023-02-14T16:39:25.051Z,7.27
2023-02-14T16:41:57.725Z,8.37
2023-02-14T16:44:25.913Z,7.53
2023-02-14T16:46:53.684Z,10.03
2023-02-14T16:49:22.968Z,7.77
2023-02-14T16:51:51.203Z,8.10
2023-02-14T16:54:21.351Z,7.17
2023-02-14T16:56:52.230Z,7.37
2023-02-14T16:59:19.984Z,8.37
2023-02-14T17:01:48.283Z,7.50
2023-02-14T17:04:16.199Z,7.90
2023-02-14T17:06:47.454Z,7.47
2023-02-14T17:09:16.130Z,8.60
2023-02-14T17:11:48.570Z,7.83
2023-02-14T17:14:18.527Z,6.60
2023-02-14T17:16:46.559Z,6.50
2023-02-14T17:19:15.087Z,7.27
2023-02-14T17:21:43.062Z,7.47
2023-02-14T17:24:11.684Z,8.30
2023-02-14T17:26:39.688Z,6.73
2023-02-14T17:29:09.843Z,6.90
2023-02-14T17:31:37.933Z,10.00
2023-02-14T17:34:06.375Z,7.90
2023-02-14T17:36:34.433Z,7.53
2023-02-14T17:39:03.730Z,6.87
2023-02-14T17:41:31.805Z,8.63
2023-02-14T17:44:01.328Z,7.13
2023-02-14T17:46:31.112Z,6.00
2023-02-14T17:49:02.262Z,7.30
2023-02-14T17:51:30.439Z,7.33
2023-02-14T17:53:59.062Z,6.10
2023-02-14T17:56:27.312Z,5.93
2023-02-14T17:58:55.339Z,5.83
2023-02-14T18:01:24.253Z,6.43
2023-02-14T18:03:54.247Z,6.03
2023-02-14T18:06:22.727Z,5.43
2023-02-14T18:08:53.126Z,6.33
2023-02-14T18:11:22.240Z,7.83
2023-02-14T18:13:50.509Z,7.40
2023-02-14T18:16:20.061Z,6.83
2023-02-14T18:18:48.228Z,6.40
2023-02-14T18:21:20.607Z,7.03
2023-02-14T18:23:48.566Z,6.57
2023-02-14T18:26:17.074Z,7.13
2023-02-14T18:28:45.332Z,6.33
2023-02-14T18:31:14.104Z,7.43
2023-02-14T18:33:42.175Z,7.13
2023-02-14T18:36:12.205Z,7.40
2023-02-14T18:38:42.170Z,6.27
2023-02-14T18:41:10.831Z,7.47
2023-02-14T18:43:39.123Z,6.33
2023-02-14T18:46:07.466Z,5.57
2023-02-14T18:48:35.902Z,6.20
2023-02-14T18:51:07.253Z,6.83
2023-02-14T18:53:35.418Z,5.60
2023-02-14T18:56:06.556Z,6.07
2023-02-14T18:58:35.360Z,6.90
2023-02-14T19:01:08.969Z,8.43
2023-02-14T19:03:37.129Z,8.10
2023-02-14T19:06:05.085Z,6.20
2023-02-14T19:08:33.029Z,8.50
2023-02-14T19:11:01.494Z,6.10
2023-02-14T19:13:32.210Z,7.40
2023-02-14T19:16:00.901Z,6.60
2023-02-14T19:18:29.227Z,6.93
2023-02-14T19:20:57.401Z,6.10
2023-02-14T19:23:25.305Z,7.00
2023-02-14T19:25:53.710Z,7.83
2023-02-14T19:28:21.547Z,6.00
2023-02-14T19:30:51.672Z,7.27
2023-02-14T19:33:19.718Z,8.00
2023-02-14T19:35:48.187Z,6.80
2023-02-14T19:38:16.041Z,8.50
2023-02-14T19:40:45.600Z,7.47
2023-02-14T19:43:13.261Z,8.10
2023-02-14T19:45:41.591Z,6.73
2023-02-14T19:48:11.476Z,6.50
2023-02-14T19:50:39.725Z,6.47
2023-02-14T19:53:07.481Z,6.50
2023-02-14T19:55:35.629Z,6.93
2023-02-14T19:58:03.309Z,6.20
2023-02-14T20:00:31.190Z,7.47
2023-02-14T20:03:01.560Z,7.23
2023-02-14T20:05:30.864Z,8.73
2023-02-14T20:07:59.180Z,6.77
2023-02-14T20:10:27.049Z,7.23
2023-02-14T20:12:55.106Z,7.17
2023-02-14T20:15:23.462Z,6.77
2023-02-14T20:17:51.770Z,7.47
2023-02-14T20:20:22.067Z,7.40
2023-02-14T20:22:51.360Z,7.13
2023-02-14T20:25:19.592Z,8.53
2023-02-14T20:27:47.574Z,6.80
2023-02-14T20:30:20.996Z,11.80
2023-02-14T20:32:48.924Z,7.00
2023-02-14T20:35:16.995Z,6.27
2023-02-14T20:37:44.947Z,9.50
2023-02-14T20:40:15.947Z,7.87
2023-02-14T20:42:44.024Z,9.90
2023-02-14T20:45:12.103Z,7.90
2023-02-14T20:47:40.011Z,8.30
2023-02-14T20:50:08.769Z,7.23
2023-02-14T20:52:37.104Z,8.60
2023-02-14T20:55:05.789Z,7.37
2023-02-14T20:57:35.178Z,8.80
2023-02-14T21:00:03.106Z,8.83
2023-02-14T21:02:31.051Z,8.97
2023-02-14T21:05:00.334Z,9.20
2023-02-14T21:07:30.821Z,8.27
2023-02-14T21:09:58.744Z,9.53
2023-02-14T21:12:26.667Z,10.97
2023-02-14T21:14:55.816Z,13.33
2023-02-14T21:17:23.796Z,11.83
2023-02-14T21:19:51.755Z,12.53
2023-02-14T21:22:19.680Z,14.50
2023-02-14T21:24:47.681Z,12.40
2023-02-14T21:27:15.820Z,11.83
2023-02-14T21:29:43.835Z,15.50
2023-02-14T21:32:13.364Z,13.03
2023-02-14T21:34:41.481Z,14.47
2023-02-14T21:37:09.508Z,17.10
2023-02-14T21:39:38.075Z,15.70
2023-02-14T21:42:07.670Z,13.10
2023-02-14T21:44:53.029Z,15.20
2023-02-14T21:47:22.458Z,16.10
2023-02-14T21:50:08.195Z,14.83
2023-02-14T21:52:36.732Z,13.80
2023-02-14T21:55:04.654Z,16.43
2023-02-14T21:57:32.443Z,19.23
2023-02-14T22:00:00.163Z,15.83
2023-02-14T22:02:29.258Z,13.07
2023-02-14T22:04:57.414Z,13.60
2023-02-14T22:07:25.152Z,14.83
2023-02-14T22:09:52.839Z,13.80
2023-02-14T22:12:20.678Z,17.03
2023-02-14T22:14:49.053Z,17.60
2023-02-14T22:17:16.808Z,16.10
2023-02-14T22:19:46.163Z,14.80
2023-02-14T22:22:13.984Z,18.00
2023-02-14T22:24:42.183Z,19.73
2023-02-14T22:27:10.058Z,20.30
2023-02-14T22:29:38.204Z,14.97
2023-02-14T22:32:06.467Z,16.00
2023-02-14T22:34:34.554Z,17.47
2023-02-14T22:37:04.288Z,20.67
2023-02-14T22:39:32.226Z,15.23
2023-02-14T22:42:02.232Z,17.03
2023-02-14T22:44:30.067Z,15.30
2023-02-14T22:46:57.825Z,17.43
2023-02-14T22:49:25.506Z,16.27
2023-02-14T22:51:53.515Z,14.80
2023-02-14T22:54:23.232Z,17.83
2023-02-14T22:56:51.519Z,17.07
2023-02-14T22:59:20.372Z,16.07
2023-02-14T23:01:48.456Z,16.53
2023-02-14T23:04:16.391Z,15.83
2023-02-14T23:06:44.297Z,14.73
2023-02-14T23:09:12.641Z,15.40
2023-02-14T23:11:42.168Z,15.73
2023-02-14T23:14:29.472Z,18.37
2023-02-14T23:17:15.308Z,16.80
2023-02-14T23:20:00.639Z,13.90
2023-02-14T23:22:29.770Z,16.07
2023-02-14T23:24:58.378Z,15.90
2023-02-14T23:27:30.589Z,18.40
2023-02-14T23:29:58.342Z,13.50
2023-02-14T23:32:26.426Z,15.30
2023-02-14T23:34:54.174Z,16.80
2023-02-14T23:37:22.482Z,14.53
2023-02-14T23:39:50.567Z,17.33
2023-02-14T23:42:18.250Z,15.40
2023-02-14T23:44:47.836Z,18.40
2023-02-14T23:47:15.878Z,14.73
2023-02-14T23:49:44.079Z,13.87
2023-02-14T23:52:12.620Z,16.97
2023-02-14T23:54:41.212Z,16.33
2023-02-14T23:57:09.000Z,14.80
2023-02-14T23:59:36.846Z,12.30
